Terminal Aerodrome Forecast
Issued by NWS

Home | Current Version | Previous Version | Graphics & Text | Print | Product List | Glossary On
Versions: 1 2 3 4 5 6 7 8 9 10 11 12 13 14 15 16
000
FTUS43 KOAX 271143
TAFCDR
TAF
KCDR 271143Z 2712/2812 25010KT P6SM BKN150
     FM271600 35013G20KT P6SM BKN150
     FM272000 01015KT P6SM -SHRA VCTS BKN050CB
     FM280200 34005KT P6SM SCT050=

USA.gov is the U.S. government's official web portal to all federal, state and local government web resources and services.